Time;durP1;ratioP1;P1;durP2;ratioP2;P2;SDS_P1;SDS_P2;PMS_P1;PMS_P2;Temp;Humidity;BMP_temperature;BMP_pressure;BME280_temperature;BME280_humidity;BME280_pressure;Samples;Min_cycle;Max_cycle;Signal;HPM_P1;HPM_P2
2024/03/17 00:01:47;;;;;;;14.95;7.43;;;11.60;56.10;;;;;;4968620;28;20124;-89
2024/03/17 00:04:13;;;;;;;16.95;7.90;;;11.60;56.10;;;;;;4967125;28;20034;-88
2024/03/17 00:06:39;;;;;;;15.05;7.70;;;11.60;56.20;;;;;;4959719;28;20049;-88
2024/03/17 00:09:09;;;;;;;17.30;7.28;;;11.60;56.10;;;;;;4936756;28;20066;-90
2024/03/17 00:11:35;;;;;;;11.85;6.95;;;11.50;56.30;;;;;;4988054;28;20052;-89
2024/03/17 00:14:02;;;;;;;13.65;7.18;;;11.60;56.20;;;;;;4982775;28;20045;-89
2024/03/17 00:16:28;;;;;;;12.88;7.22;;;11.50;56.00;;;;;;4988910;28;20036;-90
2024/03/17 00:18:55;;;;;;;16.50;7.28;;;11.50;56.20;;;;;;4989329;28;20208;-87
2024/03/17 00:21:21;;;;;;;18.60;7.40;;;11.50;56.60;;;;;;5006239;28;20041;-88
2024/03/17 00:23:51;;;;;;;14.77;7.80;;;11.50;56.20;;;;;;4962957;28;20033;-86
2024/03/17 00:26:19;;;;;;;14.38;7.13;;;11.50;56.30;;;;;;4968726;28;20524;-87
2024/03/17 00:28:48;;;;;;;11.45;6.60;;;11.50;56.50;;;;;;4992887;28;20042;-87
2024/03/17 00:31:17;;;;;;;17.02;7.82;;;11.40;56.60;;;;;;5007475;28;20040;-87
2024/03/17 00:33:44;;;;;;;12.00;7.30;;;11.50;56.30;;;;;;4959216;28;20169;-88
2024/03/17 00:36:10;;;;;;;15.80;7.93;;;11.40;56.60;;;;;;5006625;28;20041;-87
2024/03/17 00:38:36;;;;;;;19.77;7.80;;;11.40;56.40;;;;;;4969411;28;20034;-87
2024/03/17 00:41:06;;;;;;;12.60;6.97;;;11.40;56.30;;;;;;4990039;28;20550;-86
2024/03/17 00:43:32;;;;;;;11.82;7.70;;;11.40;56.40;;;;;;4972116;28;20037;-85
2024/03/17 00:45:58;;;;;;;15.48;7.40;;;11.40;56.30;;;;;;4972085;28;20049;-84
2024/03/17 00:48:24;;;;;;;17.80;7.57;;;11.40;56.30;;;;;;4970896;28;20060;-86
2024/03/17 00:50:58;;;;;;;13.45;7.72;;;11.30;56.30;;;;;;4988844;28;20045;-85
2024/03/17 00:53:24;;;;;;;16.13;7.63;;;11.30;56.30;;;;;;4989708;28;20146;-87
2024/03/17 00:55:57;;;;;;;16.70;7.28;;;11.30;57.30;;;;;;4988540;28;20037;-86
2024/03/17 00:58:23;;;;;;;12.30;7.88;;;11.30;56.70;;;;;;4989264;28;20030;-85
2024/03/17 01:00:49;;;;;;;15.32;8.10;;;11.30;56.40;;;;;;4987051;28;20030;-85
2024/03/17 01:03:19;;;;;;;14.65;8.50;;;11.30;56.40;;;;;;4972900;28;20048;-84
2024/03/17 01:05:47;;;;;;;17.17;8.45;;;11.30;56.40;;;;;;4984570;28;20125;-85
2024/03/17 01:08:17;;;;;;;23.98;9.25;;;11.30;56.70;;;;;;4970605;28;20038;-84
2024/03/17 01:10:44;;;;;;;12.23;7.22;;;11.20;56.60;;;;;;4988876;28;20034;-85
2024/03/17 01:13:10;;;;;;;12.93;8.60;;;11.20;56.80;;;;;;4996468;28;20122;-85
2024/03/17 01:15:37;;;;;;;15.75;8.00;;;11.20;57.00;;;;;;4981276;28;20034;-86
2024/03/17 01:18:06;;;;;;;18.80;8.15;;;11.20;56.70;;;;;;4988968;28;20034;-86
2024/03/17 01:20:39;;;;;;;14.05;8.07;;;11.20;56.90;;;;;;5002825;28;20052;-85
2024/03/17 01:23:06;;;;;;;15.35;7.80;;;11.20;57.10;;;;;;4987699;28;20397;-85
2024/03/17 01:25:37;;;;;;;14.88;8.77;;;11.20;57.10;;;;;;4987499;28;20041;-85
2024/03/17 01:28:04;;;;;;;15.65;8.63;;;11.10;57.30;;;;;;4966008;28;20074;-89
2024/03/17 01:30:32;;;;;;;16.67;9.70;;;11.20;57.40;;;;;;4988567;28;20030;-85
2024/03/17 01:33:01;;;;;;;17.42;7.93;;;11.10;57.20;;;;;;5005347;28;20037;-85
2024/03/17 01:35:27;;;;;;;17.10;8.00;;;11.10;57.00;;;;;;4971298;28;20046;-85
2024/03/17 01:37:54;;;;;;;17.35;8.63;;;11.10;57.30;;;;;;4954976;28;20125;-85
2024/03/17 01:40:21;;;;;;;13.90;8.30;;;11.10;56.80;;;;;;4988077;28;20034;-85
2024/03/17 01:42:47;;;;;;;17.63;8.13;;;11.10;56.70;;;;;;4984018;28;20177;-83
2024/03/17 01:45:26;;;;;;;16.15;8.38;;;11.10;57.00;;;;;;4984878;28;20069;-84
2024/03/17 01:47:54;;;;;;;18.33;8.55;;;11.10;56.70;;;;;;5004426;28;20049;-83
2024/03/17 01:50:24;;;;;;;16.45;8.77;;;11.10;56.70;;;;;;4988826;28;20038;-85
2024/03/17 01:52:56;;;;;;;13.48;7.88;;;11.00;57.10;;;;;;4987968;28;20030;-86
2024/03/17 01:55:22;;;;;;;14.25;7.97;;;11.00;57.20;;;;;;4952391;28;20038;-85
2024/03/17 01:57:51;;;;;;;15.90;8.77;;;11.00;57.50;;;;;;4981763;28;20049;-86
2024/03/17 02:00:17;;;;;;;17.10;8.50;;;11.00;57.50;;;;;;4990249;28;20038;-86
2024/03/17 02:02:43;;;;;;;17.35;8.40;;;11.00;57.20;;;;;;4959980;28;20034;-86
2024/03/17 02:05:10;;;;;;;18.00;8.38;;;11.00;57.60;;;;;;4989684;28;20038;-88
2024/03/17 02:07:36;;;;;;;17.73;8.48;;;10.90;57.30;;;;;;4957800;28;20080;-86
2024/03/17 02:10:05;;;;;;;17.80;8.77;;;10.90;57.00;;;;;;5009259;28;20121;-87
2024/03/17 02:12:31;;;;;;;18.95;9.02;;;10.90;57.50;;;;;;5008249;28;20066;-87
2024/03/17 02:15:05;;;;;;;17.70;8.48;;;10.90;57.10;;;;;;4987850;28;20060;-87
2024/03/17 02:17:32;;;;;;;15.30;8.52;;;10.90;56.90;;;;;;4962009;28;20030;-87
2024/03/17 02:19:58;;;;;;;18.20;9.43;;;10.90;57.40;;;;;;4974831;28;20072;-86
2024/03/17 02:22:24;;;;;;;16.48;8.82;;;10.90;57.00;;;;;;4958205;28;21871;-86
2024/03/17 02:24:50;;;;;;;15.40;8.90;;;10.90;56.90;;;;;;4989983;28;20037;-87
2024/03/17 02:27:16;;;;;;;14.85;8.63;;;10.90;57.20;;;;;;4958614;28;20029;-89
2024/03/17 02:29:42;;;;;;;17.65;9.48;;;10.80;57.10;;;;;;4992182;28;20029;-90
2024/03/17 02:32:08;;;;;;;16.48;8.60;;;10.90;57.40;;;;;;4992111;28;20033;-89
2024/03/17 02:34:35;;;;;;;19.90;9.60;;;10.80;57.70;;;;;;4988237;28;20030;-90
2024/03/17 02:37:05;;;;;;;12.98;8.52;;;10.80;57.20;;;;;;5006185;28;20632;-88
2024/03/17 02:39:35;;;;;;;23.48;9.13;;;10.80;57.10;;;;;;4991694;28;20046;-89
2024/03/17 02:42:05;;;;;;;16.90;8.98;;;10.80;57.40;;;;;;4972245;28;20026;-90
2024/03/17 02:44:32;;;;;;;17.55;8.98;;;10.80;57.60;;;;;;4953326;28;20058;-87
2024/03/17 02:46:59;;;;;;;15.20;8.82;;;10.80;57.30;;;;;;5006009;28;20076;-85
2024/03/17 02:49:27;;;;;;;16.95;9.77;;;10.80;57.80;;;;;;4954594;28;20042;-88
2024/03/17 02:51:54;;;;;;;18.45;9.63;;;10.70;57.60;;;;;;4999060;28;20509;-86
2024/03/17 02:54:23;;;;;;;19.85;8.90;;;10.70;57.40;;;;;;4986189;28;20137;-85
2024/03/17 02:56:49;;;;;;;16.08;9.38;;;10.70;57.10;;;;;;4989686;28;20030;-84
2024/03/17 02:59:15;;;;;;;16.38;9.02;;;10.70;57.40;;;;;;4972968;28;20072;-83
2024/03/17 03:01:41;;;;;;;17.45;9.65;;;10.70;57.50;;;;;;4989204;28;20036;-83
2024/03/17 03:04:07;;;;;;;20.42;9.05;;;10.70;57.70;;;;;;5004118;28;20045;-83
2024/03/17 03:06:34;;;;;;;19.88;9.95;;;10.70;57.70;;;;;;4972163;28;20111;-83
2024/03/17 03:09:00;;;;;;;17.83;9.18;;;10.70;57.40;;;;;;4989453;28;20651;-84
2024/03/17 03:11:26;;;;;;;24.35;10.02;;;10.60;57.30;;;;;;4990003;28;20034;-83
2024/03/17 03:13:52;;;;;;;18.13;9.18;;;10.60;57.50;;;;;;5005217;28;20083;-85
2024/03/17 03:16:18;;;;;;;20.70;10.05;;;10.60;57.40;;;;;;4999141;28;20055;-85
2024/03/17 03:18:45;;;;;;;19.38;9.18;;;10.60;57.50;;;;;;4968827;28;20172;-87
2024/03/17 03:21:13;;;;;;;20.02;9.13;;;10.60;57.60;;;;;;4987349;28;20030;-87
2024/03/17 03:23:39;;;;;;;20.38;9.45;;;10.60;57.40;;;;;;4971358;28;20765;-87
2024/03/17 03:26:08;;;;;;;14.82;9.02;;;10.60;57.50;;;;;;5005038;28;20409;-87
2024/03/17 03:28:35;;;;;;;16.20;9.77;;;10.60;57.60;;;;;;4982996;28;20121;-86
2024/03/17 03:31:02;;;;;;;15.18;9.18;;;10.60;57.60;;;;;;4969787;28;20091;-87
2024/03/17 03:33:28;;;;;;;19.00;8.90;;;10.60;57.60;;;;;;4957809;28;20080;-87
2024/03/17 03:35:55;;;;;;;16.67;9.27;;;10.50;57.40;;;;;;4991958;28;20045;-86
2024/03/17 03:38:22;;;;;;;18.60;9.65;;;10.50;57.60;;;;;;4950130;28;20072;-86
2024/03/17 03:40:48;;;;;;;18.65;9.48;;;10.50;57.70;;;;;;4969522;28;20042;-87
2024/03/17 03:43:15;;;;;;;18.05;9.30;;;10.50;57.70;;;;;;4988727;28;20084;-88
2024/03/17 03:45:41;;;;;;;19.33;9.35;;;10.50;57.80;;;;;;4980500;28;20046;-86
2024/03/17 03:48:11;;;;;;;19.23;9.32;;;10.50;57.80;;;;;;4973126;28;20029;-86
2024/03/17 03:50:40;;;;;;;15.80;9.00;;;10.50;57.80;;;;;;4972336;28;20177;-85
2024/03/17 03:53:06;;;;;;;18.20;8.93;;;10.50;57.60;;;;;;4971854;28;20048;-86
2024/03/17 03:55:32;;;;;;;16.83;9.32;;;10.50;57.70;;;;;;4985396;28;20035;-87
2024/03/17 03:57:58;;;;;;;21.00;9.27;;;10.50;57.80;;;;;;5001043;28;20041;-87
2024/03/17 04:00:29;;;;;;;23.63;10.43;;;10.50;57.60;;;;;;4988649;28;20034;-87
2024/03/17 04:02:55;;;;;;;20.98;9.40;;;10.50;57.80;;;;;;4990139;28;20030;-86
2024/03/17 04:05:22;;;;;;;20.92;9.55;;;10.50;57.90;;;;;;4986951;28;20500;-85
2024/03/17 04:07:49;;;;;;;19.25;9.20;;;10.40;57.70;;;;;;5006727;28;20030;-88
2024/03/17 04:10:18;;;;;;;19.08;9.30;;;10.40;58.00;;;;;;4986171;28;20120;-88
2024/03/17 04:12:44;;;;;;;20.15;9.70;;;10.40;57.80;;;;;;4979927;28;20041;-86
2024/03/17 04:15:11;;;;;;;18.02;9.00;;;10.50;57.80;;;;;;5005961;28;20055;-86
2024/03/17 04:17:37;;;;;;;16.60;9.50;;;10.40;57.90;;;;;;5008081;28;20113;-86
2024/03/17 04:20:08;;;;;;;15.95;9.27;;;10.40;57.90;;;;;;4974446;28;20041;-87
2024/03/17 04:22:34;;;;;;;16.65;10.07;;;10.40;57.90;;;;;;4965163;28;20033;-86
2024/03/17 04:25:00;;;;;;;19.17;9.70;;;10.40;57.80;;;;;;4973420;28;20087;-87
2024/03/17 04:27:28;;;;;;;19.70;9.52;;;10.50;58.10;;;;;;4965432;28;20555;-87
2024/03/17 04:29:55;;;;;;;16.27;9.23;;;10.40;58.20;;;;;;4982790;28;20030;-85
2024/03/17 04:32:22;;;;;;;17.50;9.13;;;10.50;58.10;;;;;;4987772;28;20602;-87
2024/03/17 04:34:48;;;;;;;23.95;11.00;;;10.50;58.10;;;;;;4989230;28;20966;-87
2024/03/17 04:37:14;;;;;;;21.13;9.27;;;10.40;57.90;;;;;;4986711;28;20053;-85
2024/03/17 04:39:44;;;;;;;22.40;10.52;;;10.50;58.00;;;;;;4964409;28;20080;-84
2024/03/17 04:42:12;;;;;;;19.30;10.27;;;10.50;58.10;;;;;;4972806;28;20029;-84
2024/03/17 04:44:39;;;;;;;19.48;9.75;;;10.40;58.00;;;;;;4968880;28;20496;-84
2024/03/17 04:47:10;;;;;;;21.13;10.30;;;10.50;57.90;;;;;;4964491;28;20513;-84
2024/03/17 04:49:43;;;;;;;19.52;11.13;;;10.50;57.90;;;;;;4987502;28;20061;-83
2024/03/17 04:52:11;;;;;;;17.40;10.35;;;10.50;58.00;;;;;;5005354;28;20128;-85
2024/03/17 04:54:37;;;;;;;16.58;10.35;;;10.50;58.00;;;;;;4967552;28;20041;-85
2024/03/17 04:57:04;;;;;;;23.58;10.90;;;10.50;58.00;;;;;;5006597;28;20400;-86
2024/03/17 04:59:33;;;;;;;20.92;11.10;;;10.50;58.00;;;;;;5001453;28;20165;-87
2024/03/17 05:01:59;;;;;;;20.00;10.32;;;10.50;57.90;;;;;;4969553;28;20077;-85
2024/03/17 05:04:25;;;;;;;25.42;10.73;;;10.50;57.90;;;;;;4988843;28;20037;-87
2024/03/17 05:06:51;;;;;;;26.75;11.48;;;10.50;57.70;;;;;;4989487;28;20048;-87
2024/03/17 05:09:18;;;;;;;19.42;10.90;;;10.50;57.80;;;;;;5002524;28;20045;-87
2024/03/17 05:11:44;;;;;;;19.20;11.38;;;10.50;57.70;;;;;;5003921;28;20545;-86
2024/03/17 05:14:10;;;;;;;19.55;10.88;;;10.50;57.80;;;;;;4971042;28;20073;-88
2024/03/17 05:16:36;;;;;;;20.77;11.00;;;10.50;57.80;;;;;;4951194;28;20099;-89
2024/03/17 05:19:03;;;;;;;18.83;11.13;;;10.60;57.80;;;;;;4955409;28;20029;-88
2024/03/17 05:21:30;;;;;;;18.10;10.93;;;10.60;57.90;;;;;;4969497;28;20097;-90
2024/03/17 05:23:59;;;;;;;17.67;10.35;;;10.60;57.80;;;;;;4986305;28;20161;-87
2024/03/17 05:26:26;;;;;;;19.73;11.55;;;10.60;57.70;;;;;;4978081;28;20042;-85
2024/03/17 05:28:52;;;;;;;22.10;11.18;;;10.60;57.60;;;;;;5008264;28;20189;-84
2024/03/17 05:31:18;;;;;;;16.85;10.98;;;10.60;57.60;;;;;;4991700;28;20130;-84
2024/03/17 05:33:44;;;;;;;23.85;11.40;;;10.60;57.60;;;;;;5008835;28;20117;-86
2024/03/17 05:36:10;;;;;;;24.13;12.02;;;10.60;57.60;;;;;;5007662;28;20120;-85
2024/03/17 05:38:36;;;;;;;20.23;11.65;;;10.70;57.70;;;;;;4973870;28;20033;-91
2024/03/17 05:41:04;;;;;;;25.85;11.85;;;10.70;57.70;;;;;;4962404;28;20042;-90
2024/03/17 05:43:38;;;;;;;20.48;10.73;;;10.70;57.80;;;;;;4993932;28;20137;-88
2024/03/17 05:46:08;;;;;;;21.13;10.48;;;10.70;57.80;;;;;;4988136;28;20683;-87
2024/03/17 05:48:38;;;;;;;20.55;11.93;;;10.80;58.00;;;;;;4984184;28;20535;-87
2024/03/17 05:51:06;;;;;;;22.25;11.80;;;10.80;58.10;;;;;;4995215;28;20062;-87
2024/03/17 05:53:32;;;;;;;21.63;10.50;;;10.90;58.10;;;;;;4957019;28;20037;-88
2024/03/17 05:56:02;;;;;;;17.80;9.75;;;10.90;58.10;;;;;;4990903;28;20033;-86
2024/03/17 05:58:29;;;;;;;18.90;10.63;;;11.00;58.10;;;;;;5005758;28;20533;-84
2024/03/17 06:00:55;;;;;;;20.48;11.10;;;11.10;58.20;;;;;;4975070;28;20402;-83
2024/03/17 06:03:21;;;;;;;19.10;10.43;;;11.10;58.10;;;;;;4987687;28;20038;-82
2024/03/17 06:05:48;;;;;;;19.95;10.10;;;11.20;58.10;;;;;;5008264;28;20354;-79
2024/03/17 06:08:15;;;;;;;21.40;10.77;;;11.20;58.70;;;;;;5006144;28;20034;-78
2024/03/17 06:10:48;;;;;;;19.85;10.68;;;11.30;58.10;;;;;;5007414;28;20034;-79
2024/03/17 06:13:16;;;;;;;19.63;9.75;;;11.30;58.00;;;;;;4989994;28;20084;-78
2024/03/17 06:15:44;;;;;;;14.95;10.43;;;11.40;57.90;;;;;;5007884;28;20099;-81
2024/03/17 06:18:14;;;;;;;20.25;11.20;;;11.50;57.90;;;;;;4987307;28;20021;-85
2024/03/17 06:20:45;;;;;;;20.02;11.13;;;11.50;57.90;;;;;;4989431;28;20520;-84
2024/03/17 06:23:12;;;;;;;17.77;9.77;;;11.60;57.80;;;;;;4990986;28;20034;-88
2024/03/17 06:25:42;;;;;;;20.92;10.02;;;11.70;57.80;;;;;;4988942;28;20062;-77
2024/03/17 06:28:10;;;;;;;23.80;10.50;;;11.80;57.80;;;;;;4957876;28;20117;-81
2024/03/17 06:30:36;;;;;;;17.10;10.52;;;11.80;57.80;;;;;;4969195;28;20037;-80
2024/03/17 06:33:03;;;;;;;16.50;9.48;;;11.90;57.80;;;;;;5005724;28;20112;-80
2024/03/17 06:35:30;;;;;;;17.90;9.60;;;12.00;57.90;;;;;;5004643;28;20509;-80
2024/03/17 06:38:00;;;;;;;17.95;9.23;;;12.10;57.90;;;;;;4984919;28;20042;-79
2024/03/17 06:40:27;;;;;;;15.02;8.75;;;12.20;58.10;;;;;;4989758;28;20069;-80
2024/03/17 06:42:53;;;;;;;19.27;9.60;;;12.20;58.10;;;;;;5006875;28;20084;-80
2024/03/17 06:45:20;;;;;;;13.55;8.25;;;12.30;58.10;;;;;;5005333;28;20398;-82
2024/03/17 06:47:47;;;;;;;14.07;8.63;;;12.40;58.10;;;;;;4987689;28;20113;-80
2024/03/17 06:50:14;;;;;;;20.77;8.70;;;12.50;58.20;;;;;;4965765;28;20030;-81
2024/03/17 06:52:40;;;;;;;14.55;8.68;;;12.60;58.20;;;;;;4988317;28;20088;-79
2024/03/17 06:55:25;;;;;;;16.52;8.65;;;12.60;58.20;;;;;;5003972;28;20037;-80
2024/03/17 06:57:51;;;;;;;16.50;7.65;;;12.70;58.20;;;;;;4987387;28;20037;-79
2024/03/17 07:00:17;;;;;;;22.08;8.50;;;12.80;58.10;;;;;;5002684;28;20034;-80
2024/03/17 07:02:44;;;;;;;17.00;7.97;;;12.90;58.10;;;;;;4997590;28;20459;-81
2024/03/17 07:05:16;;;;;;;17.73;8.35;;;12.90;57.90;;;;;;4970927;28;20038;-81
2024/03/17 07:07:43;;;;;;;19.40;9.05;;;13.10;58.50;;;;;;4988311;28;20045;-83
2024/03/17 07:10:15;;;;;;;18.27;8.63;;;13.10;57.60;;;;;;4987222;28;20069;-80
2024/03/17 07:12:43;;;;;;;20.63;9.80;;;13.20;57.30;;;;;;4969468;28;20046;-78
2024/03/17 07:15:11;;;;;;;17.23;8.43;;;13.40;57.40;;;;;;4970223;28;20084;-80
2024/03/17 07:17:37;;;;;;;18.27;8.43;;;13.50;57.50;;;;;;4979429;28;20142;-80
2024/03/17 07:20:07;;;;;;;17.55;8.30;;;13.70;57.30;;;;;;4970874;28;20033;-81
2024/03/17 07:22:33;;;;;;;17.15;7.53;;;13.80;57.00;;;;;;4960858;28;20057;-80
2024/03/17 07:25:02;;;;;;;16.35;8.05;;;13.90;57.00;;;;;;4983314;28;20054;-77
2024/03/17 07:27:29;;;;;;;21.55;9.07;;;14.10;56.30;;;;;;5001669;28;20038;-81
2024/03/17 07:29:55;;;;;;;20.58;9.63;;;14.10;55.60;;;;;;5005809;28;20491;-80
2024/03/17 07:32:23;;;;;;;26.65;11.32;;;14.20;54.80;;;;;;5004297;28;20039;-84
2024/03/17 07:34:50;;;;;;;30.05;10.98;;;14.40;54.40;;;;;;4988610;28;20038;-84
2024/03/17 07:37:16;;;;;;;26.90;11.57;;;14.40;54.00;;;;;;4972737;28;20090;-82
2024/03/17 07:39:42;;;;;;;28.05;11.45;;;14.50;53.70;;;;;;4989113;28;20057;-90
2024/03/17 07:42:08;;;;;;;23.25;11.70;;;14.50;53.20;;;;;;5004528;28;20542;-81
2024/03/17 07:44:34;;;;;;;25.83;11.75;;;14.60;53.10;;;;;;5003617;28;20050;-81
2024/03/17 07:47:01;;;;;;;31.20;11.52;;;14.70;53.40;;;;;;4981420;28;20148;-80
2024/03/17 07:49:27;;;;;;;26.20;10.63;;;14.70;53.30;;;;;;4987770;28;20029;-79
2024/03/17 07:51:54;;;;;;;21.50;10.55;;;14.80;53.80;;;;;;4987187;28;20037;-79
2024/03/17 07:54:21;;;;;;;34.38;12.82;;;14.80;53.10;;;;;;4988240;28;20038;-82
2024/03/17 07:56:47;;;;;;;32.97;13.43;;;14.80;53.00;;;;;;5004393;28;20034;-78
2024/03/17 07:59:16;;;;;;;35.78;13.88;;;14.80;53.00;;;;;;4986201;28;20039;-79
2024/03/17 08:01:42;;;;;;;28.95;12.88;;;14.80;52.80;;;;;;4985132;28;20600;-80
2024/03/17 08:04:08;;;;;;;40.88;14.85;;;14.80;52.90;;;;;;4984789;28;20038;-79
2024/03/17 08:06:34;;;;;;;44.40;13.85;;;14.80;52.90;;;;;;5004560;28;20038;-79
2024/03/17 08:09:01;;;;;;;36.50;14.98;;;14.80;52.70;;;;;;5003895;28;20030;-78
2024/03/17 08:11:27;;;;;;;41.95;15.07;;;14.90;52.70;;;;;;5002125;28;20030;-79
2024/03/17 08:13:54;;;;;;;45.05;14.35;;;14.90;52.70;;;;;;4986536;28;20069;-79
2024/03/17 08:16:20;;;;;;;40.42;15.15;;;14.90;52.70;;;;;;4985622;28;20177;-81
2024/03/17 08:18:46;;;;;;;38.25;14.73;;;14.90;52.80;;;;;;4950175;28;20049;-77
2024/03/17 08:21:12;;;;;;;33.13;14.27;;;14.90;52.70;;;;;;4984484;28;20030;-79
2024/03/17 08:23:42;;;;;;;41.90;15.35;;;14.90;52.70;;;;;;5004212;28;20038;-79
2024/03/17 08:26:09;;;;;;;35.00;14.25;;;14.90;52.80;;;;;;5001847;28;20049;-77
2024/03/17 08:28:35;;;;;;;37.38;14.85;;;14.90;52.70;;;;;;5003024;28;20061;-78
2024/03/17 08:31:03;;;;;;;36.17;14.80;;;14.90;52.60;;;;;;5002933;28;20049;-79
2024/03/17 08:33:30;;;;;;;40.72;14.45;;;14.90;52.70;;;;;;5002116;28;20045;-77
2024/03/17 08:35:57;;;;;;;33.45;14.85;;;14.90;52.60;;;;;;5003828;28;20042;-77
2024/03/17 08:38:24;;;;;;;36.15;14.63;;;14.90;52.50;;;;;;4982931;28;20049;-78
2024/03/17 08:40:54;;;;;;;32.20;15.25;;;14.90;52.60;;;;;;5004642;28;20528;-80
2024/03/17 08:43:22;;;;;;;33.80;15.18;;;14.90;52.80;;;;;;4965559;28;20038;-77
2024/03/17 08:45:58;;;;;;;29.40;13.27;;;14.90;53.60;;;;;;4987630;28;20699;-78
2024/03/17 08:48:24;;;;;;;30.90;14.02;;;14.90;53.40;;;;;;5003883;28;20046;-77
2024/03/17 08:50:52;;;;;;;31.45;13.30;;;14.90;53.70;;;;;;4987522;28;20117;-77
2024/03/17 08:53:18;;;;;;;33.83;13.93;;;15.00;54.00;;;;;;5004499;28;20408;-79
2024/03/17 08:55:44;;;;;;;38.42;13.65;;;15.00;54.50;;;;;;4971961;28;20061;-79
2024/03/17 08:58:10;;;;;;;34.33;14.15;;;14.90;54.00;;;;;;5004996;28;20085;-78
2024/03/17 09:00:36;;;;;;;40.78;13.75;;;14.90;54.00;;;;;;5006440;28;20034;-77
2024/03/17 09:03:03;;;;;;;42.65;13.55;;;14.90;54.20;;;;;;5009331;28;20026;-80
2024/03/17 09:05:32;;;;;;;32.75;13.15;;;15.00;54.40;;;;;;5008447;28;21029;-78
2024/03/17 09:07:59;;;;;;;36.78;13.07;;;15.00;54.50;;;;;;5006476;28;20045;-79
2024/03/17 09:10:25;;;;;;;32.05;12.52;;;15.00;54.60;;;;;;5008271;28;20118;-78
2024/03/17 09:12:51;;;;;;;30.15;13.07;;;15.00;55.30;;;;;;5005602;28;20405;-79
2024/03/17 09:15:17;;;;;;;37.03;12.10;;;15.00;55.00;;;;;;5007472;28;20046;-79
2024/03/17 09:17:44;;;;;;;34.22;12.68;;;15.00;55.20;;;;;;4975873;28;20481;-78
2024/03/17 09:20:12;;;;;;;36.10;13.00;;;15.00;55.40;;;;;;5006724;28;20041;-78
2024/03/17 09:22:39;;;;;;;32.97;11.95;;;15.00;55.50;;;;;;5008309;28;20033;-77
2024/03/17 09:25:08;;;;;;;36.05;12.40;;;15.00;55.50;;;;;;5006642;28;20520;-76
2024/03/17 09:27:38;;;;;;;34.72;12.02;;;15.00;55.70;;;;;;5006444;28;20142;-80
2024/03/17 09:30:09;;;;;;;33.20;12.18;;;15.00;55.70;;;;;;5007750;28;20034;-80
2024/03/17 09:32:38;;;;;;;28.88;12.60;;;15.00;55.60;;;;;;4991375;28;20034;-79
2024/03/17 09:35:05;;;;;;;30.55;11.65;;;15.00;55.70;;;;;;5008446;28;20034;-80
2024/03/17 09:37:32;;;;;;;33.47;12.57;;;15.00;55.80;;;;;;5007061;28;20374;-78
2024/03/17 09:40:01;;;;;;;30.05;11.55;;;15.10;55.90;;;;;;4985136;28;20037;-80
2024/03/17 09:42:27;;;;;;;29.33;12.07;;;15.10;55.90;;;;;;5006789;28;20121;-80
2024/03/17 09:44:57;;;;;;;31.35;11.77;;;15.10;55.90;;;;;;5004272;28;20116;-79
2024/03/17 09:47:24;;;;;;;32.28;12.25;;;15.10;56.00;;;;;;4988143;28;20490;-80
2024/03/17 09:49:50;;;;;;;30.23;11.38;;;15.10;56.00;;;;;;4989149;28;20578;-79
2024/03/17 09:52:26;;;;;;;51.22;12.55;;;15.10;56.00;;;;;;5007625;28;20959;-78
2024/03/17 09:55:11;;;;;;;27.17;10.65;;;15.00;56.00;;;;;;4989879;28;20045;-77
2024/03/17 09:57:39;;;;;;;30.90;11.15;;;15.10;56.20;;;;;;5005971;28;20034;-78
2024/03/17 10:00:13;;;;;;;30.30;10.63;;;15.10;56.30;;;;;;5008194;28;20796;-78
2024/03/17 10:02:46;;;;;;;30.95;10.88;;;15.10;56.40;;;;;;5008307;28;20048;-77
2024/03/17 10:05:23;;;;;;;33.67;10.85;;;15.10;56.10;;;;;;5009070;28;20120;-78
2024/03/17 10:07:53;;;;;;;30.20;11.43;;;15.10;55.90;;;;;;4991743;28;20034;-81
2024/03/17 10:10:21;;;;;;;32.75;11.07;;;15.10;55.60;;;;;;4991932;28;20038;-80
2024/03/17 10:12:51;;;;;;;30.40;10.75;;;15.10;55.90;;;;;;5006368;28;20570;-80
2024/03/17 10:15:18;;;;;;;33.58;11.38;;;15.10;55.40;;;;;;5005497;28;20034;-80
2024/03/17 10:17:44;;;;;;;32.75;11.25;;;15.10;55.40;;;;;;5007169;28;20079;-80
2024/03/17 10:20:17;;;;;;;37.38;11.25;;;15.10;55.20;;;;;;4970549;28;20038;-80
2024/03/17 10:23:04;;;;;;;31.98;10.65;;;15.10;55.00;;;;;;5006384;28;20041;-79
2024/03/17 10:25:32;;;;;;;32.58;11.32;;;15.10;55.10;;;;;;5006243;28;20115;-79
2024/03/17 10:27:59;;;;;;;34.25;11.02;;;15.10;55.20;;;;;;5005919;28;20034;-78
2024/03/17 10:30:30;;;;;;;25.42;10.60;;;15.10;55.20;;;;;;5006721;28;20745;-80
2024/03/17 10:33:03;;;;;;;28.90;10.48;;;15.00;55.10;;;;;;4999000;28;20104;-78
2024/03/17 10:35:31;;;;;;;29.50;11.45;;;15.10;55.10;;;;;;5005992;28;20777;-78
2024/03/17 10:37:59;;;;;;;32.63;10.80;;;15.10;54.90;;;;;;4972049;28;20072;-80
2024/03/17 10:40:27;;;;;;;26.33;9.65;;;15.10;54.90;;;;;;4989100;28;20038;-80
2024/03/17 10:42:53;;;;;;;25.80;10.48;;;15.10;54.80;;;;;;5005240;28;20042;-79
2024/03/17 10:45:21;;;;;;;29.48;9.68;;;15.10;54.80;;;;;;4985366;28;20180;-78
2024/03/17 10:47:51;;;;;;;26.10;9.27;;;15.10;54.70;;;;;;5005955;28;20029;-80
2024/03/17 10:50:23;;;;;;;22.88;9.07;;;15.10;54.70;;;;;;4986823;28;20046;-79
2024/03/17 10:52:51;;;;;;;25.73;9.25;;;15.10;54.60;;;;;;5004325;28;21053;-79
2024/03/17 10:55:26;;;;;;;23.50;8.75;;;15.10;54.60;;;;;;5003649;28;20221;-79
2024/03/17 10:57:57;;;;;;;23.35;8.55;;;15.10;54.60;;;;;;5002549;28;20125;-80
2024/03/17 11:00:29;;;;;;;25.23;8.65;;;15.10;54.50;;;;;;4988651;28;20034;-80
2024/03/17 11:02:55;;;;;;;21.38;7.07;;;15.10;54.50;;;;;;4987631;28;20030;-80
2024/03/17 11:05:22;;;;;;;18.83;7.72;;;15.10;54.60;;;;;;4986324;28;20088;-79
2024/03/17 11:07:51;;;;;;;20.35;7.50;;;15.10;54.60;;;;;;5006502;28;20037;-79
2024/03/17 11:10:31;;;;;;;18.98;6.82;;;15.10;54.50;;;;;;5001849;28;20072;-79
2024/03/17 11:12:59;;;;;;;17.92;6.63;;;15.10;54.50;;;;;;5004298;28;20088;-77
2024/03/17 11:15:25;;;;;;;17.17;6.53;;;15.10;54.40;;;;;;5005132;28;20029;-79
2024/03/17 11:17:53;;;;;;;17.75;6.88;;;15.10;54.30;;;;;;5005575;28;20061;-79
2024/03/17 11:20:28;;;;;;;23.55;8.23;;;15.10;54.20;;;;;;4988548;28;20176;-78
2024/03/17 11:23:01;;;;;;;18.17;6.82;;;15.10;54.20;;;;;;4986603;28;20125;-79
2024/03/17 11:25:27;;;;;;;18.85;7.13;;;15.10;54.10;;;;;;5004645;28;20099;-78
2024/03/17 11:27:57;;;;;;;20.88;6.90;;;15.10;54.20;;;;;;5004137;28;20030;-79
2024/03/17 11:30:46;;;;;;;21.45;7.47;;;15.10;54.10;;;;;;5006822;28;20030;-78
2024/03/17 11:33:35;;;;;;;24.10;8.02;;;15.10;54.00;;;;;;4981079;28;20056;-81
2024/03/17 11:36:28;;;;;;;23.35;8.02;;;15.10;53.90;;;;;;5003498;28;20026;-77
2024/03/17 11:39:08;;;;;;;23.85;7.68;;;15.10;53.90;;;;;;5004712;28;20041;-80
2024/03/17 11:41:42;;;;;;;20.50;8.05;;;15.10;53.80;;;;;;5000335;28;20404;-79
2024/03/17 11:44:25;;;;;;;28.43;8.10;;;15.00;53.70;;;;;;4986857;28;20049;-79
2024/03/17 11:46:59;;;;;;;26.27;8.15;;;15.10;53.70;;;;;;5002806;28;20056;-77
2024/03/17 11:49:38;;;;;;;28.80;8.38;;;15.10;53.70;;;;;;4990606;28;20089;-78
2024/03/17 11:52:13;;;;;;;25.55;7.97;;;15.00;53.60;;;;;;4968092;28;20042;-79
2024/03/17 11:54:43;;;;;;;22.27;7.70;;;15.00;53.60;;;;;;4981310;28;20046;-79
2024/03/17 11:57:12;;;;;;;23.55;8.48;;;15.00;53.50;;;;;;4968964;28;20409;-79
2024/03/17 11:59:45;;;;;;;24.83;8.70;;;15.00;53.60;;;;;;4967218;28;20030;-79
2024/03/17 12:02:29;;;;;;;23.42;7.10;;;15.00;53.40;;;;;;4982950;28;20505;-79
2024/03/17 12:05:00;;;;;;;24.58;7.78;;;15.00;53.40;;;;;;4985006;28;20041;-79
2024/03/17 12:07:28;;;;;;;23.13;7.78;;;15.00;53.90;;;;;;4994672;28;20045;-79
2024/03/17 12:09:55;;;;;;;16.42;7.00;;;15.00;53.20;;;;;;5003724;28;20572;-78
2024/03/17 12:12:23;;;;;;;28.75;7.90;;;14.90;53.20;;;;;;4999985;28;20034;-78
2024/03/17 12:14:50;;;;;;;26.48;7.78;;;14.90;53.20;;;;;;4982728;28;20053;-79
2024/03/17 12:17:24;;;;;;;32.50;7.82;;;14.90;53.10;;;;;;4949198;28;20042;-80
2024/03/17 12:19:51;;;;;;;22.08;7.85;;;14.90;53.20;;;;;;4983647;28;20042;-80
2024/03/17 12:22:21;;;;;;;23.23;7.97;;;14.90;53.20;;;;;;4966383;28;20046;-78
2024/03/17 12:24:59;;;;;;;26.02;7.93;;;14.90;53.10;;;;;;4966868;28;20113;-80
2024/03/17 12:27:26;;;;;;;26.75;8.60;;;14.80;53.10;;;;;;4968345;28;20176;-79
2024/03/17 12:29:53;;;;;;;26.23;7.70;;;14.80;53.10;;;;;;5004095;28;20081;-80
2024/03/17 12:32:21;;;;;;;25.88;8.50;;;14.90;53.20;;;;;;4972467;28;20042;-80
2024/03/17 12:34:50;;;;;;;21.70;7.72;;;14.80;53.30;;;;;;4962284;28;20042;-79
2024/03/17 12:37:18;;;;;;;26.70;8.38;;;14.80;53.50;;;;;;4993335;28;20031;-79
2024/03/17 12:39:45;;;;;;;22.45;8.18;;;14.80;53.60;;;;;;4980904;28;20035;-79